Time;durP1;ratioP1;P1;durP2;ratioP2;P2;SDS_P1;SDS_P2;PMS_P1;PMS_P2;Temp;Humidity;BMP_temperature;BMP_pressure;BME280_temperature;BME280_humidity;BME280_pressure;Samples;Min_cycle;Max_cycle;Signal;HPM_P1;HPM_P2
2023/04/14 00:00:07;;;;;;;3.90;2.15;;;;;;;9.42;89.56;98306.94;5056283;28;20068;-65
2023/04/14 00:02:43;;;;;;;0.70;0.70;;;;;;;9.43;90.01;98313.69;5056134;28;20053;-65
2023/04/14 00:05:13;;;;;;;2.47;2.28;;;;;;;9.45;89.27;98300.97;5056383;28;20436;-65
2023/04/14 00:07:42;;;;;;;2.50;1.40;;;;;;;9.43;90.06;98293.31;5056119;28;20045;-65
2023/04/14 00:10:11;;;;;;;5.20;3.10;;;;;;;9.44;90.01;98284.84;5055941;28;20087;-65
2023/04/14 00:12:40;;;;;;;0.85;0.80;;;;;;;9.48;89.65;98285.59;5056264;28;20132;-65
2023/04/14 00:15:10;;;;;;;1.15;0.98;;;;;;;9.48;89.77;98274.59;5055568;28;20411;-66
2023/04/14 00:17:38;;;;;;;;;;;;;;;9.47;89.68;98262.72;5056756;28;20053;-66
2023/04/14 00:20:09;;;;;;;0.60;0.60;;;;;;;9.48;89.86;98264.41;5056201;28;20004;-66
2023/04/14 00:22:39;;;;;;;3.10;2.88;;;;;;;9.49;89.71;98260.97;5055827;28;20495;-65
2023/04/14 00:25:08;;;;;;;2.33;1.85;;;;;;;9.50;90.06;98267.75;5055724;28;20075;-65
2023/04/14 00:27:37;;;;;;;1.50;1.40;;;;;;;9.51;89.28;98260.09;5055809;28;20094;-65
2023/04/14 00:30:07;;;;;;;1.05;1.00;;;;;;;9.51;89.50;98256.69;5055698;28;20049;-66
2023/04/14 00:32:36;;;;;;;0.60;0.60;;;;;;;9.54;88.96;98249.84;5055710;28;20045;-65
2023/04/14 00:35:06;;;;;;;1.27;1.17;;;;;;;9.56;89.86;98247.25;5054420;28;20103;-66
2023/04/14 00:37:34;;;;;;;1.02;0.95;;;;;;;9.56;89.11;98244.72;5055463;28;20053;-66
2023/04/14 00:40:08;;;;;;;1.08;1.05;;;;;;;9.57;89.02;98243.84;5055555;28;20055;-67
2023/04/14 00:42:43;;;;;;;0.70;0.70;;;;;;;9.58;88.92;98231.06;5055540;28;20052;-66
2023/04/14 00:45:13;;;;;;;2.08;1.20;;;;;;;9.59;89.23;98226.81;5055473;28;20056;-66
2023/04/14 00:47:45;;;;;;;1.52;1.42;;;;;;;9.57;89.57;98215.84;5055382;28;20056;-65
2023/04/14 00:50:16;;;;;;;0.70;0.70;;;;;;;9.57;88.79;98208.19;5054374;28;20041;-66
2023/04/14 00:52:48;;;;;;;2.28;1.50;;;;;;;9.57;89.62;98205.66;5055610;28;20155;-65
2023/04/14 00:55:19;;;;;;;0.70;0.70;;;;;;;9.58;89.37;98205.59;5055565;28;20053;-66
2023/04/14 00:57:48;;;;;;;0.90;0.90;;;;;;;9.60;89.26;98203.06;5055599;28;20091;-66
2023/04/14 01:00:18;;;;;;;;;;;;;;;9.63;88.90;98202.97;5054693;28;20517;-66
2023/04/14 01:02:46;;;;;;;0.50;0.50;;;;;;;9.64;88.63;98199.56;5055434;28;19956;-66
2023/04/14 01:05:15;;;;;;;0.52;0.52;;;;;;;9.64;88.42;98205.50;5055090;28;20034;-66
2023/04/14 01:07:48;;;;;;;1.95;1.63;;;;;;;9.63;89.26;98202.97;5054991;28;20104;-66
2023/04/14 01:10:18;;;;;;;0.73;0.73;;;;;;;9.65;89.21;98201.22;5054907;28;20045;-65
2023/04/14 01:13:10;;;;;;;1.08;1.02;;;;;;;9.66;88.85;98200.38;5055219;28;20091;-65
2023/04/14 01:15:47;;;;;;;1.48;1.38;;;;;;;9.64;88.97;98189.38;5054703;28;20055;-65
2023/04/14 01:18:22;;;;;;;1.45;1.35;;;;;;;9.54;88.13;98182.78;5054861;28;20048;-65
2023/04/14 01:20:56;;;;;;;1.55;1.17;;;;;;;9.64;88.16;98195.31;5055082;28;20041;-65
2023/04/14 01:23:27;;;;;;;1.48;0.75;;;;;;;9.64;89.01;98189.38;5053562;28;20049;-66
2023/04/14 01:26:19;;;;;;;0.95;0.90;;;;;;;9.63;88.76;98183.44;5053072;28;20132;-66
2023/04/14 01:29:14;;;;;;;0.60;0.60;;;;;;;9.59;88.97;98170.81;5053100;28;20055;-65
2023/04/14 01:31:49;;;;;;;0.68;0.68;;;;;;;9.58;88.12;98164.84;5053357;28;20043;-65
2023/04/14 01:34:23;;;;;;;0.73;0.73;;;;;;;9.62;88.37;98178.38;5036969;28;20045;-66
2023/04/14 01:36:57;;;;;;;0.77;0.77;;;;;;;9.61;88.61;98169.06;5053341;28;20053;-65
2023/04/14 01:39:35;;;;;;;0.73;0.73;;;;;;;9.62;89.11;98160.56;5054472;28;20106;-66
2023/04/14 01:42:07;;;;;;;0.68;0.68;;;;;;;9.62;88.82;98152.91;5053414;28;20449;-66
2023/04/14 01:44:39;;;;;;;0.30;0.30;;;;;;;9.62;88.79;98150.38;5054311;28;20053;-66
2023/04/14 01:47:13;;;;;;;0.50;0.50;;;;;;;9.63;88.78;98152.88;5053019;28;20041;-65
2023/04/14 01:49:46;;;;;;;1.33;1.23;;;;;;;9.65;88.38;98150.28;5052895;28;20068;-65
2023/04/14 01:52:17;;;;;;;0.90;0.68;;;;;;;9.65;88.48;98152.81;5053057;28;20051;-65
2023/04/14 01:54:51;;;;;;;1.08;0.98;;;;;;;9.70;88.86;98153.56;5054093;28;20068;-65
2023/04/14 01:57:21;;;;;;;1.10;0.90;;;;;;;9.72;87.89;98147.56;5054137;28;20083;-65
2023/04/14 01:59:55;;;;;;;0.88;0.82;;;;;;;9.73;88.01;98149.25;5054370;28;20130;-65
2023/04/14 02:02:26;;;;;;;1.10;1.00;;;;;;;9.76;87.99;98148.34;5052640;28;20045;-66
2023/04/14 02:04:57;;;;;;;4.93;1.70;;;;;;;9.78;87.71;98149.16;5052752;28;20052;-67
2023/04/14 02:07:28;;;;;;;0.90;0.90;;;;;;;9.77;87.68;98157.66;5053904;28;20076;-65
2023/04/14 02:10:00;;;;;;;0.80;0.55;;;;;;;9.76;87.82;98151.75;5053853;28;20098;-66
2023/04/14 02:12:30;;;;;;;3.33;1.00;;;;;;;9.76;88.04;98138.16;5052485;28;20071;-66
2023/04/14 02:15:02;;;;;;;2.55;2.35;;;;;;;9.75;87.55;98123.75;5052576;28;20059;-66
2023/04/14 02:17:33;;;;;;;0.40;0.40;;;;;;;9.75;87.26;98113.53;5052574;28;20132;-65
2023/04/14 02:20:03;;;;;;;0.95;0.95;;;;;;;9.75;87.52;98111.00;5052893;28;20041;-67
2023/04/14 02:22:31;;;;;;;0.60;0.60;;;;;;;9.75;87.64;98111.00;5054115;28;20075;-65
2023/04/14 02:25:01;;;;;;;0.40;0.40;;;;;;;9.75;87.71;98111.84;5053605;28;20053;-66
2023/04/14 02:27:38;;;;;;;0.50;0.50;;;;;;;9.77;87.31;98093.97;5053635;28;20052;-66
2023/04/14 02:30:11;;;;;;;0.80;0.80;;;;;;;9.80;87.44;98094.75;5053520;28;20099;-66
2023/04/14 02:32:47;;;;;;;0.60;0.60;;;;;;;9.81;87.68;98075.22;5053845;28;20041;-65
2023/04/14 02:35:20;;;;;;;7.47;1.15;;;;;;;9.81;87.14;98075.22;5053918;28;20091;-66
2023/04/14 02:37:56;;;;;;;0.60;0.60;;;;;;;9.80;87.16;98068.44;5052963;28;20514;-65
2023/04/14 02:40:27;;;;;;;0.50;0.50;;;;;;;9.83;87.33;98068.38;5052608;28;20045;-65
2023/04/14 02:43:02;;;;;;;0.50;0.50;;;;;;;9.82;86.91;98076.88;5052207;28;20522;-65
2023/04/14 02:45:36;;;;;;;1.58;1.40;;;;;;;9.85;87.02;98064.06;5053511;28;20123;-65
2023/04/14 02:48:11;;;;;;;0.63;0.63;;;;;;;9.84;86.73;98065.75;5052623;28;20048;-65
2023/04/14 02:50:45;;;;;;;1.65;1.05;;;;;;;9.90;86.44;98085.19;5052173;28;20041;-65
2023/04/14 02:53:21;;;;;;;1.20;1.00;;;;;;;9.89;86.53;98078.41;5053256;28;20079;-65
2023/04/14 02:55:57;;;;;;;1.15;1.10;;;;;;;9.92;86.30;98083.44;5053418;28;20049;-65
2023/04/14 02:58:30;;;;;;;0.60;0.60;;;;;;;9.91;86.39;98082.59;5052141;28;20049;-66
2023/04/14 03:01:00;;;;;;;1.67;1.23;;;;;;;9.90;85.97;98080.09;5052680;28;20454;-65
2023/04/14 03:03:36;;;;;;;0.40;0.40;;;;;;;9.90;86.61;98080.09;5052300;28;20045;-65
2023/04/14 03:06:09;;;;;;;0.40;0.40;;;;;;;9.90;86.00;98090.28;5052368;28;20582;-65
2023/04/14 03:08:39;;;;;;;;;;;;;;;9.87;86.56;98080.16;5053881;28;20124;-66
2023/04/14 03:11:08;;;;;;;;;;;;;;;9.87;86.32;98080.16;5052633;28;19943;-65
2023/04/14 03:13:39;;;;;;;0.70;0.70;;;;;;;9.83;86.86;98068.38;5052196;28;19927;-65
2023/04/14 03:16:12;;;;;;;0.52;0.52;;;;;;;9.85;86.77;98061.50;5052243;28;20114;-65
2023/04/14 03:18:43;;;;;;;0.68;0.68;;;;;;;9.86;86.31;98050.47;5053423;28;20075;-65
2023/04/14 03:21:17;;;;;;;0.85;0.70;;;;;;;9.87;86.27;98062.31;5053402;28;20381;-65
2023/04/14 03:23:51;;;;;;;0.65;0.65;;;;;;;9.88;86.40;98056.34;5053098;28;20049;-65
2023/04/14 03:26:25;;;;;;;0.55;0.55;;;;;;;9.83;86.54;98055.63;5052185;28;20045;-65
2023/04/14 03:28:55;;;;;;;1.73;0.93;;;;;;;9.83;86.68;98060.72;5051837;28;20041;-65
2023/04/14 03:31:32;;;;;;;0.50;0.50;;;;;;;9.81;86.66;98063.28;5053410;28;20381;-65
2023/04/14 03:34:07;;;;;;;0.75;0.75;;;;;;;9.81;86.74;98065.84;5052815;28;20052;-65
2023/04/14 03:36:43;;;;;;;0.68;0.68;;;;;;;9.81;87.07;98076.03;5052868;28;20110;-65
2023/04/14 03:39:15;;;;;;;2.38;1.05;;;;;;;9.81;87.36;98083.66;5052782;28;20061;-65
2023/04/14 03:41:50;;;;;;;1.38;1.30;;;;;;;9.82;87.23;98076.88;5052889;28;20052;-65
2023/04/14 03:44:22;;;;;;;0.70;0.70;;;;;;;9.84;87.12;98087.84;5053078;28;20439;-65
2023/04/14 03:46:53;;;;;;;0.80;0.80;;;;;;;9.88;86.89;98086.94;5053170;28;20045;-65
2023/04/14 03:49:27;;;;;;;1.48;1.00;;;;;;;9.90;87.25;98095.38;5052827;28;20098;-65
2023/04/14 03:52:01;;;;;;;1.42;1.20;;;;;;;9.89;86.86;98096.22;5055147;28;20052;-65
2023/04/14 03:54:32;;;;;;;1.25;0.52;;;;;;;9.91;87.12;98087.69;5055181;28;20099;-65
2023/04/14 03:57:05;;;;;;;0.63;0.63;;;;;;;9.92;86.46;98078.31;5055279;28;20056;-65
2023/04/14 03:59:36;;;;;;;1.00;0.90;;;;;;;9.95;87.32;98083.34;5055437;28;20538;-65
2023/04/14 04:02:09;;;;;;;0.68;0.68;;;;;;;9.94;86.84;98102.06;5056317;28;20044;-66
2023/04/14 04:04:42;;;;;;;0.63;0.63;;;;;;;9.91;86.67;98109.78;5056242;28;20400;-66
2023/04/14 04:07:13;;;;;;;2.20;2.03;;;;;;;9.89;87.14;98116.63;5055549;28;20099;-66
2023/04/14 04:09:45;;;;;;;2.63;1.92;;;;;;;9.85;87.68;98122.66;5055007;28;20045;-65
2023/04/14 04:12:17;;;;;;;0.60;0.60;;;;;;;9.85;87.85;98123.50;5054842;28;20095;-65
2023/04/14 04:14:46;;;;;;;1.60;0.80;;;;;;;9.85;87.47;98130.31;5054821;28;20087;-66
2023/04/14 04:17:19;;;;;;;0.73;0.73;;;;;;;9.87;87.93;98131.94;5055897;28;20052;-65
2023/04/14 04:19:51;;;;;;;1.65;1.55;;;;;;;9.90;88.11;98115.75;5055042;28;20431;-66
2023/04/14 04:22:21;;;;;;;0.60;0.60;;;;;;;9.90;87.65;98115.75;5054831;28;20056;-66
2023/04/14 04:24:51;;;;;;;1.50;1.10;;;;;;;9.89;87.84;98103.88;5054639;28;20049;-66
2023/04/14 04:27:27;;;;;;;0.30;0.30;;;;;;;9.86;87.69;98096.31;5055855;28;20048;-66
2023/04/14 04:30:08;;;;;;;1.23;1.15;;;;;;;9.91;87.91;98102.16;5055802;28;20056;-66
2023/04/14 04:32:38;;;;;;;3.40;1.75;;;;;;;9.92;88.10;98088.53;5055893;28;20041;-65
2023/04/14 04:35:12;;;;;;;2.35;1.33;;;;;;;9.92;87.85;98078.31;5054489;28;20063;-65
2023/04/14 04:37:43;;;;;;;1.95;1.20;;;;;;;9.94;87.95;98084.22;5054090;28;20051;-65
2023/04/14 04:40:13;;;;;;;1.55;1.15;;;;;;;9.96;88.21;98073.13;5055595;28;20045;-66
2023/04/14 04:42:42;;;;;;;2.27;2.07;;;;;;;9.99;88.25;98084.94;5055819;28;20450;-65
2023/04/14 04:45:36;;;;;;;4.25;3.28;;;;;;;9.97;87.72;98087.53;5056053;28;20278;-66
2023/04/14 04:48:06;;;;;;;2.10;1.90;;;;;;;9.99;87.83;98084.94;5055435;28;20057;-65
2023/04/14 04:50:36;;;;;;;0.60;0.60;;;;;;;9.98;87.84;98080.75;5055622;28;20107;-66
2023/04/14 04:53:05;;;;;;;1.52;0.95;;;;;;;9.99;87.80;98085.78;5055503;28;20482;-65
2023/04/14 04:55:34;;;;;;;2.08;1.63;;;;;;;10.02;87.59;98082.34;5054270;28;20041;-66
2023/04/14 04:58:02;;;;;;;1.37;1.27;;;;;;;10.03;88.21;98084.00;5055440;28;20037;-66
2023/04/14 05:00:31;;;;;;;1.73;1.43;;;;;;;10.05;87.34;98084.81;5055176;28;20044;-66
2023/04/14 05:03:00;;;;;;;1.27;1.17;;;;;;;10.08;88.05;98074.53;5055092;28;20079;-65
2023/04/14 05:05:29;;;;;;;0.87;0.80;;;;;;;10.07;87.43;98058.41;5054944;28;20052;-66
2023/04/14 05:07:59;;;;;;;0.57;0.57;;;;;;;10.10;87.85;98052.41;5055192;28;20033;-66
2023/04/14 05:10:28;;;;;;;1.42;1.33;;;;;;;10.12;87.91;98050.69;5054933;28;20045;-66
2023/04/14 05:12:57;;;;;;;0.70;0.70;;;;;;;10.13;87.37;98052.34;5054825;28;20037;-66
2023/04/14 05:15:26;;;;;;;2.72;1.25;;;;;;;10.14;87.34;98048.94;5054898;28;20056;-66
2023/04/14 05:17:54;;;;;;;0.63;0.63;;;;;;;10.16;87.64;98051.44;5053639;28;20098;-67
2023/04/14 05:20:23;;;;;;;0.83;0.83;;;;;;;10.14;87.24;98041.28;5054757;28;20052;-66
2023/04/14 05:22:52;;;;;;;0.82;0.80;;;;;;;10.17;87.61;98053.13;5054800;28;20110;-66
2023/04/14 05:25:22;;;;;;;2.00;1.65;;;;;;;10.16;87.68;98051.44;5054993;28;20065;-65
2023/04/14 05:27:51;;;;;;;0.30;0.30;;;;;;;10.17;86.80;98053.13;5054571;28;20049;-66
2023/04/14 05:30:20;;;;;;;0.52;0.52;;;;;;;10.19;87.03;98056.47;5054557;28;20045;-65
2023/04/14 05:32:49;;;;;;;0.83;0.83;;;;;;;10.21;86.92;98055.56;5054511;28;20041;-66
2023/04/14 05:35:18;;;;;;;2.90;1.63;;;;;;;10.21;87.15;98058.09;5054703;28;20826;-66
2023/04/14 05:37:47;;;;;;;0.30;0.30;;;;;;;10.18;86.71;98050.53;5054137;28;20320;-65
2023/04/14 05:40:15;;;;;;;10.90;1.70;;;;;;;10.26;86.84;98052.88;5054321;28;20091;-66
2023/04/14 05:42:45;;;;;;;1.20;1.15;;;;;;;10.27;87.06;98075.78;5054613;28;20041;-65
2023/04/14 05:45:14;;;;;;;0.95;0.95;;;;;;;10.28;87.30;98067.25;5054321;28;20079;-65
2023/04/14 05:47:43;;;;;;;5.30;1.50;;;;;;;10.31;87.16;98062.09;5054153;28;20068;-66
2023/04/14 05:50:12;;;;;;;;;;;;;;;10.31;86.94;98067.19;5055181;28;20048;-65
2023/04/14 05:52:41;;;;;;;0.65;0.65;;;;;;;10.35;86.88;98068.78;5054245;28;20448;-65
2023/04/14 05:55:11;;;;;;;0.50;0.50;;;;;;;10.34;86.78;98067.09;5053981;28;20041;-65
2023/04/14 05:57:39;;;;;;;1.13;1.02;;;;;;;10.37;86.98;98072.13;5053879;28;20048;-65
2023/04/14 06:00:11;;;;;;;0.50;0.50;;;;;;;10.35;87.14;98063.69;5053949;28;20095;-65
2023/04/14 06:02:41;;;;;;;2.08;0.85;;;;;;;10.34;87.00;98062.00;5054167;28;20045;-66
2023/04/14 06:05:11;;;;;;;0.77;0.77;;;;;;;10.31;87.29;98059.53;5054142;28;20056;-66
2023/04/14 06:07:41;;;;;;;0.63;0.63;;;;;;;10.31;87.29;98062.09;5053813;28;20127;-65
2023/04/14 06:10:10;;;;;;;0.67;0.67;;;;;;;10.31;87.91;98064.63;5053860;28;20041;-65
2023/04/14 06:12:39;;;;;;;2.58;0.65;;;;;;;10.32;87.66;98060.38;5053203;28;20491;-65
2023/04/14 06:15:10;;;;;;;1.10;1.05;;;;;;;10.33;87.40;98062.03;5053718;28;20057;-65
2023/04/14 06:17:39;;;;;;;1.25;1.15;;;;;;;10.34;88.02;98062.00;5053666;28;20056;-65
2023/04/14 06:20:10;;;;;;;0.52;0.52;;;;;;;10.35;88.30;98061.13;5053969;28;20049;-65
2023/04/14 06:22:39;;;;;;;1.75;1.65;;;;;;;10.36;88.12;98059.41;5053183;28;20056;-65
2023/04/14 06:25:09;;;;;;;0.50;0.50;;;;;;;10.36;88.25;98057.72;5053446;28;20048;-66
2023/04/14 06:27:38;;;;;;;0.50;0.50;;;;;;;10.37;88.05;98051.72;5053634;28;20045;-66
2023/04/14 06:30:09;;;;;;;0.52;0.52;;;;;;;10.37;87.88;98051.72;5053462;28;20045;-65
2023/04/14 06:32:38;;;;;;;0.75;0.52;;;;;;;10.37;87.96;98048.31;5053451;28;20095;-66
2023/04/14 06:35:07;;;;;;;1.67;0.60;;;;;;;10.40;87.80;98045.72;5053592;28;20044;-66
2023/04/14 06:37:44;;;;;;;3.85;1.55;;;;;;;10.37;87.86;98026.22;5053226;28;20091;-66
2023/04/14 06:40:13;;;;;;;1.48;1.38;;;;;;;10.44;87.74;98031.97;5053380;28;20056;-66
2023/04/14 06:42:42;;;;;;;0.73;0.73;;;;;;;10.45;87.71;98034.50;5053402;28;20052;-66
2023/04/14 06:45:12;;;;;;;0.88;0.73;;;;;;;10.49;88.15;98036.09;5053385;28;20067;-65
2023/04/14 06:47:41;;;;;;;2.40;1.30;;;;;;;10.52;87.68;98036.03;5053715;28;20045;-66
2023/04/14 06:50:11;;;;;;;0.70;0.70;;;;;;;10.53;88.03;98035.13;5053307;28;20052;-65
2023/04/14 06:52:39;;;;;;;0.40;0.40;;;;;;;10.53;88.12;98022.38;5053332;28;20561;-65
2023/04/14 06:55:09;;;;;;;1.05;0.98;;;;;;;10.55;88.11;98025.75;5052039;28;20044;-66
2023/04/14 06:57:38;;;;;;;1.83;1.25;;;;;;;10.55;88.78;98015.53;5050391;28;20047;-66
2023/04/14 07:00:09;;;;;;;2.97;1.52;;;;;;;10.56;88.74;98024.00;5051879;28;20041;-67
2023/04/14 07:02:49;;;;;;;1.95;1.50;;;;;;;10.56;88.46;98012.09;5052099;28;20180;-66
2023/04/14 07:05:18;;;;;;;1.70;1.17;;;;;;;10.57;88.78;98013.78;5050825;28;20403;-66
2023/04/14 07:07:47;;;;;;;1.98;1.67;;;;;;;10.60;89.06;98013.69;5051790;28;20039;-66
2023/04/14 07:10:17;;;;;;;0.40;0.40;;;;;;;10.61;88.90;98015.34;5051434;28;20128;-67
2023/04/14 07:12:46;;;;;;;2.05;1.55;;;;;;;10.64;89.17;98005.06;5052225;28;20128;-65
2023/04/14 07:15:15;;;;;;;1.42;1.33;;;;;;;10.68;89.15;98011.75;5053097;28;20132;-66
2023/04/14 07:17:43;;;;;;;1.42;1.30;;;;;;;10.72;88.87;98013.31;5052007;28;20044;-64
2023/04/14 07:20:13;;;;;;;0.80;0.80;;;;;;;10.76;89.06;98009.84;5053182;28;20443;-65
2023/04/14 07:22:42;;;;;;;1.08;0.90;;;;;;;10.81;88.76;98006.31;5053116;28;20040;-65
2023/04/14 07:25:11;;;;;;;1.45;0.68;;;;;;;10.85;88.71;97997.66;5054173;28;20049;-65
2023/04/14 07:27:42;;;;;;;1.25;1.15;;;;;;;10.91;88.62;97992.41;5056926;28;20040;-65
2023/04/14 07:30:27;;;;;;;1.75;1.65;;;;;;;10.98;88.81;97997.28;5057046;28;20049;-66
2023/04/14 07:32:57;;;;;;;0.60;0.60;;;;;;;11.02;88.95;97995.47;5057303;28;20459;-66
2023/04/14 07:35:27;;;;;;;0.93;0.90;;;;;;;11.06;88.75;98002.19;5056939;28;20128;-66
2023/04/14 07:37:56;;;;;;;0.63;0.63;;;;;;;11.10;88.55;97993.53;5056602;28;20103;-66
2023/04/14 07:40:25;;;;;;;0.50;0.50;;;;;;;11.09;88.48;97999.50;5055623;28;20037;-66
2023/04/14 07:42:56;;;;;;;1.00;0.75;;;;;;;11.11;88.19;97990.13;5056095;28;20123;-66
2023/04/14 07:45:25;;;;;;;1.80;1.50;;;;;;;11.18;88.07;97983.94;5056855;28;20234;-66
2023/04/14 07:47:54;;;;;;;1.20;0.80;;;;;;;11.26;88.11;97981.97;5056664;28;20535;-66
2023/04/14 07:50:25;;;;;;;1.33;1.23;;;;;;;11.31;87.89;97973.28;5055767;28;20049;-66
2023/04/14 07:52:55;;;;;;;1.65;0.98;;;;;;;11.35;87.85;97979.97;5056635;28;20041;-66
2023/04/14 07:55:24;;;;;;;0.95;0.88;;;;;;;11.42;87.74;97980.63;5056900;28;20048;-65
2023/04/14 07:57:55;;;;;;;1.60;1.17;;;;;;;11.48;87.63;97982.97;5056353;28;20045;-65
2023/04/14 08:00:25;;;;;;;1.33;0.73;;;;;;;11.52;87.20;97987.09;5056192;28;20076;-65
2023/04/14 08:02:54;;;;;;;2.95;1.75;;;;;;;11.55;87.23;97981.91;5057071;28;20033;-65
2023/04/14 08:05:23;;;;;;;0.80;0.63;;;;;;;11.59;86.97;97983.47;5056099;28;20081;-65
2023/04/14 08:07:52;;;;;;;1.33;1.23;;;;;;;11.63;86.87;97987.59;5056304;28;20041;-65
2023/04/14 08:10:22;;;;;;;0.70;0.70;;;;;;;11.65;86.62;97983.28;5055916;28;20479;-66
2023/04/14 08:12:51;;;;;;;1.02;0.93;;;;;;;11.69;86.35;97987.44;5055989;28;20040;-65
2023/04/14 08:15:20;;;;;;;1.17;1.08;;;;;;;11.74;86.21;97983.00;5055954;28;20048;-65
2023/04/14 08:17:49;;;;;;;1.50;1.40;;;;;;;11.82;85.97;97980.19;5055985;28;20128;-65
2023/04/14 08:20:18;;;;;;;0.60;0.60;;;;;;;11.90;85.88;97979.03;5056112;28;20317;-63
2023/04/14 08:22:46;;;;;;;2.83;1.98;;;;;;;12.00;85.35;97974.47;5056020;28;20491;-65
2023/04/14 08:25:15;;;;;;;0.80;0.80;;;;;;;12.07;85.21;97971.66;5055754;28;20069;-65
2023/04/14 08:27:46;;;;;;;1.10;1.00;;;;;;;12.14;84.24;97971.44;5055903;28;20037;-65
2023/04/14 08:30:15;;;;;;;1.58;1.48;;;;;;;12.21;84.49;97967.78;5054577;28;20041;-65
2023/04/14 08:32:44;;;;;;;0.68;0.68;;;;;;;12.31;83.57;97969.16;5055698;28;20033;-65
2023/04/14 08:35:13;;;;;;;0.70;0.65;;;;;;;12.36;82.58;97962.13;5055395;28;20088;-65
2023/04/14 08:38:02;;;;;;;1.05;0.95;;;;;;;12.44;81.83;97957.56;5055223;28;20131;-65
2023/04/14 08:40:37;;;;;;;1.13;0.95;;;;;;;12.46;81.38;97950.69;5055607;28;20124;-65
2023/04/14 08:43:07;;;;;;;0.55;0.55;;;;;;;12.49;80.80;97953.13;5055553;28;20456;-65
2023/04/14 08:45:36;;;;;;;0.80;0.80;;;;;;;12.48;80.19;97947.16;5056056;28;20041;-65
2023/04/14 08:48:05;;;;;;;1.02;1.02;;;;;;;12.49;79.84;97953.97;5055602;28;20071;-65
2023/04/14 08:50:37;;;;;;;0.63;0.63;;;;;;;12.49;79.50;97948.00;5055297;28;20057;-65
2023/04/14 08:53:09;;;;;;;0.65;0.65;;;;;;;12.53;79.46;97947.00;5055199;28;20053;-64
2023/04/14 08:55:41;;;;;;;0.40;0.40;;;;;;;12.52;79.40;97937.69;5055057;28;20095;-65
2023/04/14 08:58:11;;;;;;;0.70;0.70;;;;;;;12.55;79.27;97948.63;5055050;28;20073;-65
2023/04/14 09:00:40;;;;;;;1.23;1.13;;;;;;;12.59;78.53;97946.78;5055385;28;20499;-65
2023/04/14 09:03:09;;;;;;;0.97;0.93;;;;;;;12.63;78.18;97953.47;5053810;28;20059;-65
2023/04/14 09:05:39;;;;;;;0.75;0.68;;;;;;;12.64;77.90;97953.38;5055363;28;20080;-65
2023/04/14 09:08:08;;;;;;;1.10;1.00;;;;;;;12.69;78.04;97951.50;5054741;28;20044;-65
2023/04/14 09:10:39;;;;;;;0.60;0.60;;;;;;;12.74;77.96;97954.72;5055148;28;20067;-64
2023/04/14 09:13:10;;;;;;;1.42;0.80;;;;;;;12.77;77.59;97948.66;5054973;28;20095;-65
2023/04/14 09:15:41;;;;;;;0.65;0.65;;;;;;;12.82;77.37;97945.94;5054720;28;20053;-65
2023/04/14 09:18:11;;;;;;;1.17;1.08;;;;;;;12.84;77.14;97944.97;5054890;28;20049;-64
2023/04/14 09:20:39;;;;;;;1.55;1.45;;;;;;;12.85;77.35;97941.53;5054726;28;20082;-65
2023/04/14 09:23:09;;;;;;;;;;;;;;;12.90;77.46;97939.66;5055117;28;20107;-65
2023/04/14 09:25:39;;;;;;;1.17;1.03;;;;;;;12.97;77.44;97940.25;5054603;28;20012;-64
2023/04/14 09:28:07;;;;;;;;;;;;;;;12.98;77.08;97942.72;5054951;28;20041;-65
2023/04/14 09:30:36;;;;;;;0.70;0.70;;;;;;;13.05;77.49;97939.03;5054457;28;19967;-64
2023/04/14 09:33:07;;;;;;;2.17;1.97;;;;;;;13.11;77.42;97946.53;5054477;28;20044;-64
2023/04/14 09:35:46;;;;;;;0.93;0.90;;;;;;;13.19;77.63;97947.06;5054439;28;20378;-64
2023/04/14 09:38:16;;;;;;;1.00;0.90;;;;;;;13.27;77.71;97936.50;5054198;28;20083;-64
2023/04/14 09:40:44;;;;;;;1.17;1.05;;;;;;;13.35;78.10;97932.75;5054561;28;20045;-64
2023/04/14 09:43:25;;;;;;;1.65;1.13;;;;;;;13.42;78.57;97934.19;5054625;28;20049;-64
2023/04/14 09:45:55;;;;;;;2.40;1.25;;;;;;;13.48;78.65;97937.41;5054067;28;20084;-64
2023/04/14 09:48:27;;;;;;;1.77;1.40;;;;;;;13.48;78.56;97934.84;5053791;28;20072;-64
2023/04/14 09:50:58;;;;;;;0.70;0.70;;;;;;;13.48;78.30;97942.53;5054734;28;20483;-64
2023/04/14 09:53:29;;;;;;;0.80;0.80;;;;;;;13.44;77.42;97932.38;5054735;28;20377;-64
2023/04/14 09:56:01;;;;;;;2.30;1.25;;;;;;;13.28;76.61;97910.00;5054261;28;20399;-64
2023/04/14 09:58:31;;;;;;;1.10;1.00;;;;;;;13.44;76.75;97937.50;5054442;28;20052;-64
2023/04/14 10:01:03;;;;;;;0.95;0.90;;;;;;;13.47;76.87;97938.28;5052880;28;20087;-64
2023/04/14 10:03:34;;;;;;;0.93;0.90;;;;;;;13.52;76.54;97944.06;5053892;28;20041;-64
2023/04/14 10:06:06;;;;;;;1.15;1.05;;;;;;;13.57;76.77;97942.16;5053765;28;20049;-64
2023/04/14 10:08:38;;;;;;;1.83;1.00;;;;;;;13.60;76.88;97942.03;5053912;28;20080;-64
2023/04/14 10:11:18;;;;;;;0.98;0.90;;;;;;;13.64;77.21;97939.28;5053795;28;20102;-64
2023/04/14 10:13:48;;;;;;;1.00;0.80;;;;;;;13.66;77.06;97944.31;5054180;28;20045;-64
2023/04/14 10:16:17;;;;;;;1.30;1.20;;;;;;;13.66;76.81;97937.47;5053629;28;20045;-64
2023/04/14 10:18:47;;;;;;;0.60;0.55;;;;;;;13.70;75.98;97938.19;5053726;28;20041;-64
2023/04/14 10:21:16;;;;;;;0.70;0.65;;;;;;;13.70;76.01;97933.06;5053867;28;20108;-65
2023/04/14 10:23:46;;;;;;;2.05;1.65;;;;;;;13.75;75.87;97933.72;5053715;28;20041;-65
2023/04/14 10:26:16;;;;;;;3.08;1.77;;;;;;;13.75;75.64;97928.59;5053596;28;20558;-64
2023/04/14 10:28:46;;;;;;;3.15;1.83;;;;;;;13.74;75.15;97919.22;5053507;28;20044;-65
2023/04/14 10:31:22;;;;;;;0.80;0.80;;;;;;;13.88;74.68;97927.16;5053543;28;20068;-64
2023/04/14 10:33:54;;;;;;;1.08;1.00;;;;;;;13.94;75.38;97926.91;5053853;28;20075;-64
2023/04/14 10:36:26;;;;;;;0.95;0.82;;;;;;;13.96;75.14;97930.25;5053928;28;20052;-64
2023/04/14 10:39:00;;;;;;;0.68;0.65;;;;;;;13.96;75.05;97925.13;5053339;28;20041;-64
2023/04/14 10:41:44;;;;;;;2.17;1.08;;;;;;;13.95;74.20;97918.31;5053686;28;20072;-64
2023/04/14 10:44:26;;;;;;;1.00;0.75;;;;;;;13.97;74.29;97922.47;5053413;28;20059;-64
2023/04/14 10:46:55;;;;;;;1.15;1.05;;;;;;;13.93;74.43;97909.84;5053242;28;20114;-65
2023/04/14 10:49:30;;;;;;;;;;;;;;;13.97;73.73;97913.94;5054040;28;20099;-64
2023/04/14 10:52:01;;;;;;;2.55;0.60;;;;;;;13.99;73.55;97909.56;5053565;28;19943;-65
2023/04/14 10:54:48;;;;;;;1.23;0.98;;;;;;;14.01;73.91;97912.94;5052384;28;20114;-64
2023/04/14 10:57:18;;;;;;;0.80;0.80;;;;;;;14.01;74.33;97918.06;5053519;28;20051;-65
2023/04/14 10:59:48;;;;;;;1.05;0.95;;;;;;;13.96;73.92;97910.53;5055451;28;20053;-64
2023/04/14 11:02:28;;;;;;;2.13;1.15;;;;;;;13.95;74.24;97913.19;5057349;28;20057;-64
2023/04/14 11:05:03;;;;;;;1.30;1.20;;;;;;;13.88;74.26;97911.78;5057280;28;20045;-64
2023/04/14 11:07:39;;;;;;;2.40;1.40;;;;;;;13.83;73.93;97914.53;5057091;28;20045;-64
2023/04/14 11:10:26;;;;;;;1.77;1.15;;;;;;;13.79;73.83;97907.03;5056977;28;20606;-64
2023/04/14 11:12:57;;;;;;;0.40;0.40;;;;;;;13.75;74.74;97916.56;5057112;28;20491;-64
2023/04/14 11:15:44;;;;;;;0.75;0.73;;;;;;;13.72;74.91;97915.88;5057015;28;20430;-63
2023/04/14 11:18:15;;;;;;;1.02;0.90;;;;;;;13.68;75.14;97927.16;5057395;28;20053;-64
2023/04/14 11:20:45;;;;;;;1.05;0.93;;;;;;;13.64;nan;97928.19;5057327;28;20083;-65
2023/04/14 11:23:16;;;;;;;0.35;0.35;;;;;;;13.56;75.31;97922.53;5056809;28;20049;-65
2023/04/14 11:25:44;;;;;;;1.15;1.05;;;;;;;13.53;75.14;97926.06;5056906;28;20555;-65
2023/04/14 11:28:13;;;;;;;5.78;2.78;;;;;;;13.55;74.55;97929.41;5056889;28;20045;-63
2023/04/14 11:30:43;;;;;;;3.67;1.88;;;;;;;13.54;74.09;97937.13;5056861;28;20120;-64
2023/04/14 11:33:15;;;;;;;0.88;0.82;;;;;;;13.50;73.25;97943.28;5056821;28;20044;-64
2023/04/14 11:35:45;;;;;;;2.45;1.45;;;;;;;13.49;72.74;97928.78;5056635;28;20048;-64
2023/04/14 11:38:15;;;;;;;1.73;1.40;;;;;;;13.51;71.83;97943.22;5056609;28;20077;-65
2023/04/14 11:40:49;;;;;;;0.73;0.73;;;;;;;13.48;70.37;97934.84;5056619;28;20048;-65
2023/04/14 11:43:18;;;;;;;0.60;0.60;;;;;;;13.50;70.08;97943.28;5056935;28;20120;-65
2023/04/14 11:45:52;;;;;;;1.60;1.15;;;;;;;13.48;70.15;97952.78;5056873;28;20072;-65
2023/04/14 11:48:20;;;;;;;0.60;0.60;;;;;;;13.43;70.31;97945.28;5055431;28;20107;-65
2023/04/14 11:50:51;;;;;;;0.60;0.60;;;;;;;13.32;70.65;97958.50;5056458;28;20045;-64
2023/04/14 11:53:19;;;;;;;0.75;0.73;;;;;;;13.20;72.15;97963.25;5056441;28;20072;-64
2023/04/14 11:55:50;;;;;;;1.60;1.20;;;;;;;13.11;73.89;97967.03;5056640;28;20033;-64
2023/04/14 11:58:22;;;;;;;1.52;1.38;;;;;;;13.05;75.42;97969.75;5056263;28;20040;-64